sensor_id;sensor_type;location;lat;lon;timestamp;temperature;humidity
4097;DHT22;2062;50.694;7.246;2022-12-29T00:01:46;10.90;66.60
4097;DHT22;2062;50.694;7.246;2022-12-29T00:04:14;10.90;66.60
4097;DHT22;2062;50.694;7.246;2022-12-29T00:06:42;10.90;66.60
4097;DHT22;2062;50.694;7.246;2022-12-29T00:09:10;11.00;66.60
4097;DHT22;2062;50.694;7.246;2022-12-29T00:11:39;11.00;66.60
4097;DHT22;2062;50.694;7.246;2022-12-29T00:14:07;10.90;66.60
4097;DHT22;2062;50.694;7.246;2022-12-29T00:16:52;10.90;66.70
4097;DHT22;2062;50.694;7.246;2022-12-29T00:19:19;11.00;66.70
4097;DHT22;2062;50.694;7.246;2022-12-29T00:22:03;10.90;66.70
4097;DHT22;2062;50.694;7.246;2022-12-29T00:24:47;11.00;66.80
4097;DHT22;2062;50.694;7.246;2022-12-29T00:27:38;11.00;66.70
4097;DHT22;2062;50.694;7.246;2022-12-29T00:30:22;11.00;66.80
4097;DHT22;2062;50.694;7.246;2022-12-29T00:33:10;11.00;66.80
4097;DHT22;2062;50.694;7.246;2022-12-29T00:35:59;11.00;66.80
4097;DHT22;2062;50.694;7.246;2022-12-29T00:38:27;11.00;66.90
4097;DHT22;2062;50.694;7.246;2022-12-29T00:41:11;11.00;67.00
4097;DHT22;2062;50.694;7.246;2022-12-29T00:43:57;11.00;66.90
4097;DHT22;2062;50.694;7.246;2022-12-29T00:46:33;11.00;67.10
4097;DHT22;2062;50.694;7.246;2022-12-29T00:49:01;11.10;67.10
4097;DHT22;2062;50.694;7.246;2022-12-29T00:51:46;11.10;67.20
4097;DHT22;2062;50.694;7.246;2022-12-29T00:54:13;11.10;67.10
4097;DHT22;2062;50.694;7.246;2022-12-29T00:56:40;11.10;67.20
4097;DHT22;2062;50.694;7.246;2022-12-29T00:59:11;11.10;67.20
4097;DHT22;2062;50.694;7.246;2022-12-29T01:01:39;11.10;67.20
4097;DHT22;2062;50.694;7.246;2022-12-29T01:04:06;11.10;67.20
4097;DHT22;2062;50.694;7.246;2022-12-29T01:06:33;11.10;67.20
4097;DHT22;2062;50.694;7.246;2022-12-29T01:09:00;11.10;67.20
4097;DHT22;2062;50.694;7.246;2022-12-29T01:11:45;11.20;67.20
4097;DHT22;2062;50.694;7.246;2022-12-29T01:14:14;11.20;67.10
4097;DHT22;2062;50.694;7.246;2022-12-29T01:16:41;11.20;67.20
4097;DHT22;2062;50.694;7.246;2022-12-29T01:19:08;11.20;67.20
4097;DHT22;2062;50.694;7.246;2022-12-29T01:21:35;11.20;67.30
4097;DHT22;2062;50.694;7.246;2022-12-29T01:24:03;11.20;67.40
4097;DHT22;2062;50.694;7.246;2022-12-29T01:26:30;11.20;67.30
4097;DHT22;2062;50.694;7.246;2022-12-29T01:28:57;11.20;67.30
4097;DHT22;2062;50.694;7.246;2022-12-29T01:31:25;11.20;67.30
4097;DHT22;2062;50.694;7.246;2022-12-29T01:33:52;11.20;67.20
4097;DHT22;2062;50.694;7.246;2022-12-29T01:36:19;11.10;67.10
4097;DHT22;2062;50.694;7.246;2022-12-29T01:38:46;11.10;67.10
4097;DHT22;2062;50.694;7.246;2022-12-29T01:41:14;11.20;67.00
4097;DHT22;2062;50.694;7.246;2022-12-29T01:43:43;11.10;66.90
4097;DHT22;2062;50.694;7.246;2022-12-29T01:46:18;11.20;66.80
4097;DHT22;2062;50.694;7.246;2022-12-29T01:48:47;11.10;66.70
4097;DHT22;2062;50.694;7.246;2022-12-29T01:51:16;11.20;66.60
4097;DHT22;2062;50.694;7.246;2022-12-29T01:53:44;11.20;66.50
4097;DHT22;2062;50.694;7.246;2022-12-29T01:56:15;11.10;66.40
4097;DHT22;2062;50.694;7.246;2022-12-29T01:58:46;11.20;66.40
4097;DHT22;2062;50.694;7.246;2022-12-29T02:01:15;11.20;66.30
4097;DHT22;2062;50.694;7.246;2022-12-29T02:03:49;11.10;66.30
4097;DHT22;2062;50.694;7.246;2022-12-29T02:06:29;11.20;66.20
4097;DHT22;2062;50.694;7.246;2022-12-29T02:09:00;11.20;66.10
4097;DHT22;2062;50.694;7.246;2022-12-29T02:11:29;11.20;66.10
4097;DHT22;2062;50.694;7.246;2022-12-29T02:13:56;11.10;66.10
4097;DHT22;2062;50.694;7.246;2022-12-29T02:16:31;11.10;66.10
4097;DHT22;2062;50.694;7.246;2022-12-29T02:19:18;11.20;66.10
4097;DHT22;2062;50.694;7.246;2022-12-29T02:22:00;11.20;66.10
4097;DHT22;2062;50.694;7.246;2022-12-29T02:27:52;11.20;66.20
4097;DHT22;2062;50.694;7.246;2022-12-29T02:30:44;11.20;66.20
4097;DHT22;2062;50.694;7.246;2022-12-29T02:33:23;11.20;66.20
4097;DHT22;2062;50.694;7.246;2022-12-29T02:36:06;11.20;66.30
4097;DHT22;2062;50.694;7.246;2022-12-29T02:38:50;11.20;66.40
4097;DHT22;2062;50.694;7.246;2022-12-29T02:41:22;11.20;66.40
4097;DHT22;2062;50.694;7.246;2022-12-29T02:43:55;11.30;66.50
4097;DHT22;2062;50.694;7.246;2022-12-29T02:46:31;11.30;67.50
4097;DHT22;2062;50.694;7.246;2022-12-29T02:49:06;11.30;66.50
4097;DHT22;2062;50.694;7.246;2022-12-29T02:51:40;11.30;66.60
4097;DHT22;2062;50.694;7.246;2022-12-29T02:54:10;11.30;67.50
4097;DHT22;2062;50.694;7.246;2022-12-29T02:56:54;11.30;66.60
4097;DHT22;2062;50.694;7.246;2022-12-29T02:59:22;11.30;66.70
4097;DHT22;2062;50.694;7.246;2022-12-29T03:02:14;11.30;66.80
4097;DHT22;2062;50.694;7.246;2022-12-29T03:05:09;11.30;66.90
4097;DHT22;2062;50.694;7.246;2022-12-29T03:07:44;11.30;66.90
4097;DHT22;2062;50.694;7.246;2022-12-29T03:10:24;11.30;67.00
4097;DHT22;2062;50.694;7.246;2022-12-29T03:13:04;11.30;66.90
4097;DHT22;2062;50.694;7.246;2022-12-29T03:15:55;11.30;67.00
4097;DHT22;2062;50.694;7.246;2022-12-29T03:18:46;11.30;67.00
4097;DHT22;2062;50.694;7.246;2022-12-29T03:21:19;11.30;67.00
4097;DHT22;2062;50.694;7.246;2022-12-29T03:24:15;11.30;67.00
4097;DHT22;2062;50.694;7.246;2022-12-29T03:26:51;11.30;67.10
4097;DHT22;2062;50.694;7.246;2022-12-29T03:29:20;11.30;67.10
4097;DHT22;2062;50.694;7.246;2022-12-29T03:31:48;11.30;67.10
4097;DHT22;2062;50.694;7.246;2022-12-29T03:34:20;11.30;67.10
4097;DHT22;2062;50.694;7.246;2022-12-29T03:36:51;11.30;67.10
4097;DHT22;2062;50.694;7.246;2022-12-29T03:39:21;11.40;67.10
4097;DHT22;2062;50.694;7.246;2022-12-29T03:41:51;11.30;67.10
4097;DHT22;2062;50.694;7.246;2022-12-29T03:44:21;11.40;67.30
4097;DHT22;2062;50.694;7.246;2022-12-29T03:46:48;11.40;67.20
4097;DHT22;2062;50.694;7.246;2022-12-29T03:49:14;11.40;67.20
4097;DHT22;2062;50.694;7.246;2022-12-29T03:51:42;11.40;67.20
4097;DHT22;2062;50.694;7.246;2022-12-29T03:54:10;11.40;67.20
4097;DHT22;2062;50.694;7.246;2022-12-29T03:56:36;11.30;67.10
4097;DHT22;2062;50.694;7.246;2022-12-29T03:59:03;11.40;67.10
4097;DHT22;2062;50.694;7.246;2022-12-29T04:01:30;11.40;67.10
4097;DHT22;2062;50.694;7.246;2022-12-29T04:03:56;11.40;67.10
4097;DHT22;2062;50.694;7.246;2022-12-29T04:06:23;11.40;67.10
4097;DHT22;2062;50.694;7.246;2022-12-29T04:08:51;11.40;67.10
4097;DHT22;2062;50.694;7.246;2022-12-29T04:11:19;11.40;67.10
4097;DHT22;2062;50.694;7.246;2022-12-29T04:13:46;11.40;67.10
4097;DHT22;2062;50.694;7.246;2022-12-29T04:16:12;11.40;67.10
4097;DHT22;2062;50.694;7.246;2022-12-29T04:18:39;11.40;67.10
4097;DHT22;2062;50.694;7.246;2022-12-29T04:21:06;11.40;67.10
4097;DHT22;2062;50.694;7.246;2022-12-29T04:23:34;11.40;67.10
4097;DHT22;2062;50.694;7.246;2022-12-29T04:26:05;11.40;67.10
4097;DHT22;2062;50.694;7.246;2022-12-29T04:28:33;11.40;67.10
4097;DHT22;2062;50.694;7.246;2022-12-29T04:30:59;11.40;67.10
4097;DHT22;2062;50.694;7.246;2022-12-29T04:33:26;11.50;67.20
4097;DHT22;2062;50.694;7.246;2022-12-29T04:35:54;11.40;67.00
4097;DHT22;2062;50.694;7.246;2022-12-29T04:38:21;11.40;66.90
4097;DHT22;2062;50.694;7.246;2022-12-29T04:40:49;11.40;66.80
4097;DHT22;2062;50.694;7.246;2022-12-29T04:43:17;11.40;66.80
4097;DHT22;2062;50.694;7.246;2022-12-29T04:45:45;11.40;67.60
4097;DHT22;2062;50.694;7.246;2022-12-29T04:48:12;11.40;66.70
4097;DHT22;2062;50.694;7.246;2022-12-29T04:50:41;11.40;66.70
4097;DHT22;2062;50.694;7.246;2022-12-29T04:53:09;11.40;67.40
4097;DHT22;2062;50.694;7.246;2022-12-29T04:55:36;11.30;66.60
4097;DHT22;2062;50.694;7.246;2022-12-29T04:58:03;11.30;66.60
4097;DHT22;2062;50.694;7.246;2022-12-29T05:00:46;11.30;66.60
4097;DHT22;2062;50.694;7.246;2022-12-29T05:03:12;11.30;66.60
4097;DHT22;2062;50.694;7.246;2022-12-29T05:05:41;11.30;66.50
4097;DHT22;2062;50.694;7.246;2022-12-29T05:08:10;11.30;66.60
4097;DHT22;2062;50.694;7.246;2022-12-29T05:10:37;11.30;66.70
4097;DHT22;2062;50.694;7.246;2022-12-29T05:13:04;11.30;66.70
4097;DHT22;2062;50.694;7.246;2022-12-29T05:15:30;11.20;66.90
4097;DHT22;2062;50.694;7.246;2022-12-29T05:17:59;11.30;67.10
4097;DHT22;2062;50.694;7.246;2022-12-29T05:20:25;11.30;67.40
4097;DHT22;2062;50.694;7.246;2022-12-29T05:22:52;11.30;67.50
4097;DHT22;2062;50.694;7.246;2022-12-29T05:25:19;11.30;67.60
4097;DHT22;2062;50.694;7.246;2022-12-29T05:27:46;11.20;67.60
4097;DHT22;2062;50.694;7.246;2022-12-29T05:30:12;11.20;67.50
4097;DHT22;2062;50.694;7.246;2022-12-29T05:32:39;11.20;67.60
4097;DHT22;2062;50.694;7.246;2022-12-29T05:35:08;11.20;67.80
4097;DHT22;2062;50.694;7.246;2022-12-29T05:37:35;11.20;67.80
4097;DHT22;2062;50.694;7.246;2022-12-29T05:40:02;11.20;67.90
4097;DHT22;2062;50.694;7.246;2022-12-29T05:42:29;11.20;68.00
4097;DHT22;2062;50.694;7.246;2022-12-29T05:44:56;11.10;68.10
4097;DHT22;2062;50.694;7.246;2022-12-29T05:47:23;11.10;68.20
4097;DHT22;2062;50.694;7.246;2022-12-29T05:49:49;11.10;68.20
4097;DHT22;2062;50.694;7.246;2022-12-29T05:52:18;11.10;68.30
4097;DHT22;2062;50.694;7.246;2022-12-29T05:54:45;11.10;68.20
4097;DHT22;2062;50.694;7.246;2022-12-29T05:57:12;11.10;68.30
4097;DHT22;2062;50.694;7.246;2022-12-29T05:59:39;11.00;68.20
4097;DHT22;2062;50.694;7.246;2022-12-29T06:02:06;11.00;68.30
4097;DHT22;2062;50.694;7.246;2022-12-29T06:04:33;11.00;68.30
4097;DHT22;2062;50.694;7.246;2022-12-29T06:06:59;11.00;68.40
4097;DHT22;2062;50.694;7.246;2022-12-29T06:09:27;11.00;68.30
4097;DHT22;2062;50.694;7.246;2022-12-29T06:11:54;11.00;68.40
4097;DHT22;2062;50.694;7.246;2022-12-29T06:14:21;11.00;68.40
4097;DHT22;2062;50.694;7.246;2022-12-29T06:16:48;11.00;68.40
4097;DHT22;2062;50.694;7.246;2022-12-29T06:19:14;11.00;69.30
4097;DHT22;2062;50.694;7.246;2022-12-29T06:21:41;11.00;68.50
4097;DHT22;2062;50.694;7.246;2022-12-29T06:24:08;11.10;68.70
4097;DHT22;2062;50.694;7.246;2022-12-29T06:26:37;11.00;68.80
4097;DHT22;2062;50.694;7.246;2022-12-29T06:29:05;11.00;68.80
4097;DHT22;2062;50.694;7.246;2022-12-29T06:31:33;11.00;68.90
4097;DHT22;2062;50.694;7.246;2022-12-29T06:34:00;11.00;69.00
4097;DHT22;2062;50.694;7.246;2022-12-29T06:36:28;11.00;69.00
4097;DHT22;2062;50.694;7.246;2022-12-29T06:38:55;11.00;69.20
4097;DHT22;2062;50.694;7.246;2022-12-29T06:41:22;11.00;69.40
4097;DHT22;2062;50.694;7.246;2022-12-29T06:43:50;11.00;69.40
4097;DHT22;2062;50.694;7.246;2022-12-29T06:46:16;11.00;69.40
4097;DHT22;2062;50.694;7.246;2022-12-29T06:48:43;11.00;69.50
4097;DHT22;2062;50.694;7.246;2022-12-29T06:51:10;11.00;69.60
4097;DHT22;2062;50.694;7.246;2022-12-29T06:53:37;11.00;69.90
4097;DHT22;2062;50.694;7.246;2022-12-29T06:56:04;11.00;69.80
4097;DHT22;2062;50.694;7.246;2022-12-29T06:58:31;11.00;70.00
4097;DHT22;2062;50.694;7.246;2022-12-29T07:01:00;11.00;70.00
4097;DHT22;2062;50.694;7.246;2022-12-29T07:03:27;11.00;70.10
4097;DHT22;2062;50.694;7.246;2022-12-29T07:05:53;10.90;70.20
4097;DHT22;2062;50.694;7.246;2022-12-29T07:08:20;11.00;70.20
4097;DHT22;2062;50.694;7.246;2022-12-29T07:10:47;11.00;70.30
4097;DHT22;2062;50.694;7.246;2022-12-29T07:13:14;10.90;70.60
4097;DHT22;2062;50.694;7.246;2022-12-29T07:15:40;11.00;70.60
4097;DHT22;2062;50.694;7.246;2022-12-29T07:18:09;10.90;70.60
4097;DHT22;2062;50.694;7.246;2022-12-29T07:20:36;10.90;70.50
4097;DHT22;2062;50.694;7.246;2022-12-29T07:23:03;10.90;70.50
4097;DHT22;2062;50.694;7.246;2022-12-29T07:25:29;10.90;70.50
4097;DHT22;2062;50.694;7.246;2022-12-29T07:27:56;10.90;70.50
4097;DHT22;2062;50.694;7.246;2022-12-29T07:30:23;10.90;70.50
4097;DHT22;2062;50.694;7.246;2022-12-29T07:32:53;10.90;70.40
4097;DHT22;2062;50.694;7.246;2022-12-29T07:35:21;10.90;70.50
4097;DHT22;2062;50.694;7.246;2022-12-29T07:37:47;10.90;70.40
4097;DHT22;2062;50.694;7.246;2022-12-29T07:40:14;10.90;70.60
4097;DHT22;2062;50.694;7.246;2022-12-29T07:42:41;10.80;70.40
4097;DHT22;2062;50.694;7.246;2022-12-29T07:45:09;10.80;70.40
4097;DHT22;2062;50.694;7.246;2022-12-29T07:47:36;10.80;70.30
4097;DHT22;2062;50.694;7.246;2022-12-29T07:50:03;10.80;70.40
4097;DHT22;2062;50.694;7.246;2022-12-29T07:52:31;10.80;70.20
4097;DHT22;2062;50.694;7.246;2022-12-29T07:54:59;10.70;70.00
4097;DHT22;2062;50.694;7.246;2022-12-29T07:57:27;10.70;69.90
4097;DHT22;2062;50.694;7.246;2022-12-29T07:59:54;10.70;69.80
4097;DHT22;2062;50.694;7.246;2022-12-29T08:02:20;10.70;69.70
4097;DHT22;2062;50.694;7.246;2022-12-29T08:04:47;10.70;69.50
4097;DHT22;2062;50.694;7.246;2022-12-29T08:07:14;10.60;69.30
4097;DHT22;2062;50.694;7.246;2022-12-29T08:09:42;10.70;69.30
4097;DHT22;2062;50.694;7.246;2022-12-29T08:12:09;10.60;69.10
4097;DHT22;2062;50.694;7.246;2022-12-29T08:14:36;10.60;69.10
4097;DHT22;2062;50.694;7.246;2022-12-29T08:17:03;10.60;69.00
4097;DHT22;2062;50.694;7.246;2022-12-29T08:19:30;10.60;68.90
4097;DHT22;2062;50.694;7.246;2022-12-29T08:21:56;10.50;68.80
4097;DHT22;2062;50.694;7.246;2022-12-29T08:24:23;10.60;68.80
4097;DHT22;2062;50.694;7.246;2022-12-29T08:26:51;10.50;68.60
4097;DHT22;2062;50.694;7.246;2022-12-29T08:29:18;10.50;68.60
4097;DHT22;2062;50.694;7.246;2022-12-29T08:31:47;10.50;68.70
4097;DHT22;2062;50.694;7.246;2022-12-29T08:34:14;10.50;68.60
4097;DHT22;2062;50.694;7.246;2022-12-29T08:36:40;10.40;68.40
4097;DHT22;2062;50.694;7.246;2022-12-29T08:39:07;10.40;68.40
4097;DHT22;2062;50.694;7.246;2022-12-29T08:41:34;10.50;68.40
4097;DHT22;2062;50.694;7.246;2022-12-29T08:44:02;10.40;68.30
4097;DHT22;2062;50.694;7.246;2022-12-29T08:46:29;10.40;68.40
4097;DHT22;2062;50.694;7.246;2022-12-29T08:48:56;10.40;68.30
4097;DHT22;2062;50.694;7.246;2022-12-29T08:51:25;10.40;68.30
4097;DHT22;2062;50.694;7.246;2022-12-29T08:53:54;10.40;68.20
4097;DHT22;2062;50.694;7.246;2022-12-29T08:56:22;10.40;68.20
4097;DHT22;2062;50.694;7.246;2022-12-29T08:58:52;10.40;68.20
4097;DHT22;2062;50.694;7.246;2022-12-29T09:01:21;10.40;68.20
4097;DHT22;2062;50.694;7.246;2022-12-29T09:03:48;10.40;68.20
4097;DHT22;2062;50.694;7.246;2022-12-29T09:06:16;10.40;68.20
4097;DHT22;2062;50.694;7.246;2022-12-29T09:08:43;10.40;68.10
4097;DHT22;2062;50.694;7.246;2022-12-29T09:11:13;10.30;68.00
4097;DHT22;2062;50.694;7.246;2022-12-29T09:13:40;10.40;68.10
4097;DHT22;2062;50.694;7.246;2022-12-29T09:16:07;10.30;68.10
4097;DHT22;2062;50.694;7.246;2022-12-29T09:18:37;10.30;68.00
4097;DHT22;2062;50.694;7.246;2022-12-29T09:21:05;10.40;68.80
4097;DHT22;2062;50.694;7.246;2022-12-29T09:23:33;10.40;67.90
4097;DHT22;2062;50.694;7.246;2022-12-29T09:26:00;10.30;67.90
4097;DHT22;2062;50.694;7.246;2022-12-29T09:28:26;10.40;67.70
4097;DHT22;2062;50.694;7.246;2022-12-29T09:30:56;10.40;67.80
4097;DHT22;2062;50.694;7.246;2022-12-29T09:33:23;10.40;67.70
4097;DHT22;2062;50.694;7.246;2022-12-29T09:35:54;10.40;67.60
4097;DHT22;2062;50.694;7.246;2022-12-29T09:38:21;10.40;67.40
4097;DHT22;2062;50.694;7.246;2022-12-29T09:40:50;10.40;67.40
4097;DHT22;2062;50.694;7.246;2022-12-29T09:43:30;10.40;67.40
4097;DHT22;2062;50.694;7.246;2022-12-29T09:46:10;10.40;67.10
4097;DHT22;2062;50.694;7.246;2022-12-29T09:48:43;10.40;67.10
4097;DHT22;2062;50.694;7.246;2022-12-29T09:51:15;10.40;67.00
4097;DHT22;2062;50.694;7.246;2022-12-29T09:53:45;10.40;66.80
4097;DHT22;2062;50.694;7.246;2022-12-29T09:56:16;10.40;66.70
4097;DHT22;2062;50.694;7.246;2022-12-29T09:58:47;10.40;66.70
4097;DHT22;2062;50.694;7.246;2022-12-29T10:01:24;10.40;66.80
4097;DHT22;2062;50.694;7.246;2022-12-29T10:03:56;10.40;66.60
4097;DHT22;2062;50.694;7.246;2022-12-29T10:06:26;10.40;66.60
4097;DHT22;2062;50.694;7.246;2022-12-29T10:09:01;10.40;66.60
4097;DHT22;2062;50.694;7.246;2022-12-29T10:11:38;10.40;66.50
4097;DHT22;2062;50.694;7.246;2022-12-29T10:14:16;10.40;66.60
4097;DHT22;2062;50.694;7.246;2022-12-29T10:16:50;10.40;66.60
4097;DHT22;2062;50.694;7.246;2022-12-29T10:19:32;10.40;66.50
4097;DHT22;2062;50.694;7.246;2022-12-29T10:22:19;10.40;66.50
4097;DHT22;2062;50.694;7.246;2022-12-29T10:24:49;10.40;66.50
4097;DHT22;2062;50.694;7.246;2022-12-29T10:27:17;10.40;66.20
4097;DHT22;2062;50.694;7.246;2022-12-29T10:29:48;10.40;66.40
4097;DHT22;2062;50.694;7.246;2022-12-29T10:32:25;10.50;66.50
4097;DHT22;2062;50.694;7.246;2022-12-29T10:34:55;10.50;66.50
4097;DHT22;2062;50.694;7.246;2022-12-29T10:37:31;10.50;66.40
4097;DHT22;2062;50.694;7.246;2022-12-29T10:40:02;10.50;66.40
4097;DHT22;2062;50.694;7.246;2022-12-29T10:42:40;10.60;66.30
4097;DHT22;2062;50.694;7.246;2022-12-29T10:45:12;10.50;66.40
4097;DHT22;2062;50.694;7.246;2022-12-29T10:47:45;10.60;66.20
4097;DHT22;2062;50.694;7.246;2022-12-29T10:50:14;10.60;66.10
4097;DHT22;2062;50.694;7.246;2022-12-29T10:52:42;10.60;66.20
4097;DHT22;2062;50.694;7.246;2022-12-29T10:55:13;10.60;66.00
4097;DHT22;2062;50.694;7.246;2022-12-29T10:57:45;10.60;65.80
4097;DHT22;2062;50.694;7.246;2022-12-29T11:00:14;10.70;65.70
4097;DHT22;2062;50.694;7.246;2022-12-29T11:05:41;10.70;65.10
4097;DHT22;2062;50.694;7.246;2022-12-29T11:08:16;10.70;65.40
4097;DHT22;2062;50.694;7.246;2022-12-29T11:10:45;10.70;65.20
4097;DHT22;2062;50.694;7.246;2022-12-29T11:13:14;10.70;64.90
4097;DHT22;2062;50.694;7.246;2022-12-29T11:15:43;10.70;64.70
4097;DHT22;2062;50.694;7.246;2022-12-29T11:18:19;10.70;64.70
4097;DHT22;2062;50.694;7.246;2022-12-29T11:20:47;10.70;64.80
4097;DHT22;2062;50.694;7.246;2022-12-29T11:23:33;10.70;64.80
4097;DHT22;2062;50.694;7.246;2022-12-29T11:26:17;10.70;64.30
4097;DHT22;2062;50.694;7.246;2022-12-29T11:28:47;10.70;64.50
4097;DHT22;2062;50.694;7.246;2022-12-29T11:31:18;10.70;64.20
4097;DHT22;2062;50.694;7.246;2022-12-29T11:33:48;10.80;64.10
4097;DHT22;2062;50.694;7.246;2022-12-29T11:36:17;10.80;64.20
4097;DHT22;2062;50.694;7.246;2022-12-29T11:38:49;10.80;64.20
4097;DHT22;2062;50.694;7.246;2022-12-29T11:41:21;10.80;64.10
4097;DHT22;2062;50.694;7.246;2022-12-29T11:43:48;10.80;64.00
4097;DHT22;2062;50.694;7.246;2022-12-29T11:46:19;10.90;64.30
4097;DHT22;2062;50.694;7.246;2022-12-29T11:48:47;10.90;64.00
4097;DHT22;2062;50.694;7.246;2022-12-29T11:51:21;10.90;64.00
4097;DHT22;2062;50.694;7.246;2022-12-29T11:53:52;10.90;63.90
4097;DHT22;2062;50.694;7.246;2022-12-29T11:56:32;11.00;64.00
4097;DHT22;2062;50.694;7.246;2022-12-29T11:59:24;11.00;63.90
4097;DHT22;2062;50.694;7.246;2022-12-29T12:01:51;11.00;63.80
4097;DHT22;2062;50.694;7.246;2022-12-29T12:04:19;11.00;63.70
4097;DHT22;2062;50.694;7.246;2022-12-29T12:06:58;11.00;63.60
4097;DHT22;2062;50.694;7.246;2022-12-29T12:09:31;11.10;63.70
4097;DHT22;2062;50.694;7.246;2022-12-29T12:11:59;11.10;63.30
4097;DHT22;2062;50.694;7.246;2022-12-29T12:14:34;11.10;63.20
4097;DHT22;2062;50.694;7.246;2022-12-29T12:17:09;11.10;63.10
4097;DHT22;2062;50.694;7.246;2022-12-29T12:19:40;11.10;62.90
4097;DHT22;2062;50.694;7.246;2022-12-29T12:22:13;11.20;62.70
4097;DHT22;2062;50.694;7.246;2022-12-29T12:24:48;11.20;63.00
4097;DHT22;2062;50.694;7.246;2022-12-29T12:27:19;11.10;62.70
4097;DHT22;2062;50.694;7.246;2022-12-29T12:29:55;11.20;62.50
4097;DHT22;2062;50.694;7.246;2022-12-29T12:32:29;11.20;62.50
4097;DHT22;2062;50.694;7.246;2022-12-29T12:35:21;11.20;62.20
4097;DHT22;2062;50.694;7.246;2022-12-29T12:38:10;11.10;61.70
4097;DHT22;2062;50.694;7.246;2022-12-29T12:40:57;11.10;61.60
4097;DHT22;2062;50.694;7.246;2022-12-29T12:43:38;11.20;61.60
4097;DHT22;2062;50.694;7.246;2022-12-29T12:49:26;11.10;61.10
4097;DHT22;2062;50.694;7.246;2022-12-29T12:52:11;11.10;61.60
4097;DHT22;2062;50.694;7.246;2022-12-29T12:54:54;11.10;61.30
4097;DHT22;2062;50.694;7.246;2022-12-29T12:57:31;11.10;60.80
4097;DHT22;2062;50.694;7.246;2022-12-29T13:00:03;11.10;61.50
4097;DHT22;2062;50.694;7.246;2022-12-29T13:02:40;11.10;61.00
4097;DHT22;2062;50.694;7.246;2022-12-29T13:05:47;11.10;61.20
4097;DHT22;2062;50.694;7.246;2022-12-29T13:08:44;11.10;60.70
4097;DHT22;2062;50.694;7.246;2022-12-29T13:11:21;11.10;60.90
4097;DHT22;2062;50.694;7.246;2022-12-29T13:14:07;11.10;61.10
4097;DHT22;2062;50.694;7.246;2022-12-29T13:16:48;11.10;61.10
4097;DHT22;2062;50.694;7.246;2022-12-29T13:19:25;11.10;61.00
4097;DHT22;2062;50.694;7.246;2022-12-29T13:22:03;11.10;60.90
4097;DHT22;2062;50.694;7.246;2022-12-29T13:24:40;11.00;60.50
4097;DHT22;2062;50.694;7.246;2022-12-29T13:27:16;11.00;60.50
4097;DHT22;2062;50.694;7.246;2022-12-29T13:29:53;11.00;60.60
4097;DHT22;2062;50.694;7.246;2022-12-29T13:32:34;11.00;60.50
4097;DHT22;2062;50.694;7.246;2022-12-29T13:35:18;11.00;60.50
4097;DHT22;2062;50.694;7.246;2022-12-29T13:37:52;11.00;60.60
4097;DHT22;2062;50.694;7.246;2022-12-29T13:40:23;11.00;60.50
4097;DHT22;2062;50.694;7.246;2022-12-29T13:42:51;11.00;60.60
4097;DHT22;2062;50.694;7.246;2022-12-29T13:45:22;11.00;60.70
4097;DHT22;2062;50.694;7.246;2022-12-29T13:47:54;11.00;60.70
4097;DHT22;2062;50.694;7.246;2022-12-29T13:50:25;11.00;60.80
4097;DHT22;2062;50.694;7.246;2022-12-29T13:52:58;11.00;60.60
4097;DHT22;2062;50.694;7.246;2022-12-29T13:55:29;11.00;60.60
4097;DHT22;2062;50.694;7.246;2022-12-29T13:58:02;11.00;60.30
4097;DHT22;2062;50.694;7.246;2022-12-29T14:00:53;11.00;60.20
4097;DHT22;2062;50.694;7.246;2022-12-29T14:03:46;11.00;60.10
4097;DHT22;2062;50.694;7.246;2022-12-29T14:06:21;11.00;60.30
4097;DHT22;2062;50.694;7.246;2022-12-29T14:08:51;11.00;60.30
4097;DHT22;2062;50.694;7.246;2022-12-29T14:11:21;11.00;60.50
4097;DHT22;2062;50.694;7.246;2022-12-29T14:13:51;11.00;60.30
4097;DHT22;2062;50.694;7.246;2022-12-29T14:16:33;11.00;60.50
4097;DHT22;2062;50.694;7.246;2022-12-29T14:19:06;11.00;60.10
4097;DHT22;2062;50.694;7.246;2022-12-29T14:21:35;11.10;60.50
4097;DHT22;2062;50.694;7.246;2022-12-29T14:24:28;11.10;60.50
4097;DHT22;2062;50.694;7.246;2022-12-29T14:30:06;11.00;60.20
4097;DHT22;2062;50.694;7.246;2022-12-29T14:33:03;11.10;60.40
4097;DHT22;2062;50.694;7.246;2022-12-29T14:35:41;11.10;60.20
4097;DHT22;2062;50.694;7.246;2022-12-29T14:38:17;11.10;59.80
4097;DHT22;2062;50.694;7.246;2022-12-29T14:40:45;11.10;59.90
4097;DHT22;2062;50.694;7.246;2022-12-29T14:43:14;11.00;59.90
4097;DHT22;2062;50.694;7.246;2022-12-29T14:45:52;11.00;59.80
4097;DHT22;2062;50.694;7.246;2022-12-29T14:48:33;11.00;59.70
4097;DHT22;2062;50.694;7.246;2022-12-29T14:51:01;11.00;59.30
4097;DHT22;2062;50.694;7.246;2022-12-29T14:53:43;11.00;59.40
4097;DHT22;2062;50.694;7.246;2022-12-29T14:56:11;11.00;59.30
4097;DHT22;2062;50.694;7.246;2022-12-29T14:58:44;11.00;59.50
4097;DHT22;2062;50.694;7.246;2022-12-29T15:01:18;11.00;59.20
4097;DHT22;2062;50.694;7.246;2022-12-29T15:03:49;11.00;59.20
4097;DHT22;2062;50.694;7.246;2022-12-29T15:06:17;11.00;59.00
4097;DHT22;2062;50.694;7.246;2022-12-29T15:08:50;11.00;58.90
4097;DHT22;2062;50.694;7.246;2022-12-29T15:11:20;10.90;58.80
4097;DHT22;2062;50.694;7.246;2022-12-29T15:13:48;10.90;58.70
4097;DHT22;2062;50.694;7.246;2022-12-29T15:16:23;10.90;58.70
4097;DHT22;2062;50.694;7.246;2022-12-29T15:18:51;10.90;58.50
4097;DHT22;2062;50.694;7.246;2022-12-29T15:21:22;10.80;58.30
4097;DHT22;2062;50.694;7.246;2022-12-29T15:23:50;10.80;58.50
4097;DHT22;2062;50.694;7.246;2022-12-29T15:26:17;10.80;58.40
4097;DHT22;2062;50.694;7.246;2022-12-29T15:28:48;10.70;58.00
4097;DHT22;2062;50.694;7.246;2022-12-29T15:31:17;10.70;58.30
4097;DHT22;2062;50.694;7.246;2022-12-29T15:33:46;10.70;58.20
4097;DHT22;2062;50.694;7.246;2022-12-29T15:36:19;10.70;58.40
4097;DHT22;2062;50.694;7.246;2022-12-29T15:38:47;10.70;58.40
4097;DHT22;2062;50.694;7.246;2022-12-29T15:41:25;10.60;58.50
4097;DHT22;2062;50.694;7.246;2022-12-29T15:44:04;10.60;58.70
4097;DHT22;2062;50.694;7.246;2022-12-29T15:46:32;10.60;58.90
4097;DHT22;2062;50.694;7.246;2022-12-29T15:48:59;10.60;59.00
4097;DHT22;2062;50.694;7.246;2022-12-29T15:51:30;10.50;59.10
4097;DHT22;2062;50.694;7.246;2022-12-29T15:53:58;10.50;59.30
4097;DHT22;2062;50.694;7.246;2022-12-29T15:56:28;10.40;59.10
4097;DHT22;2062;50.694;7.246;2022-12-29T15:58:55;10.40;59.20
4097;DHT22;2062;50.694;7.246;2022-12-29T16:01:27;10.40;59.20
4097;DHT22;2062;50.694;7.246;2022-12-29T16:03:55;10.30;59.20
4097;DHT22;2062;50.694;7.246;2022-12-29T16:06:30;10.20;59.10
4097;DHT22;2062;50.694;7.246;2022-12-29T16:08:59;10.20;59.10
4097;DHT22;2062;50.694;7.246;2022-12-29T16:11:29;10.10;59.00
4097;DHT22;2062;50.694;7.246;2022-12-29T16:13:58;10.00;58.80
4097;DHT22;2062;50.694;7.246;2022-12-29T16:16:27;9.90;58.80
4097;DHT22;2062;50.694;7.246;2022-12-29T16:18:55;9.90;58.70
4097;DHT22;2062;50.694;7.246;2022-12-29T16:21:25;9.80;58.70
4097;DHT22;2062;50.694;7.246;2022-12-29T16:23:58;9.80;58.90
4097;DHT22;2062;50.694;7.246;2022-12-29T16:26:26;9.80;58.90
4097;DHT22;2062;50.694;7.246;2022-12-29T16:28:56;9.70;59.00
4097;DHT22;2062;50.694;7.246;2022-12-29T16:31:28;9.60;58.80
4097;DHT22;2062;50.694;7.246;2022-12-29T16:34:12;9.60;58.90
4097;DHT22;2062;50.694;7.246;2022-12-29T16:36:54;9.50;58.90
4097;DHT22;2062;50.694;7.246;2022-12-29T16:39:26;9.50;58.90
4097;DHT22;2062;50.694;7.246;2022-12-29T16:41:54;9.50;59.00
4097;DHT22;2062;50.694;7.246;2022-12-29T16:44:23;9.50;59.10